createdAt,value
2019-05-05T00:01:55.536Z,16.17
2019-05-05T00:05:05.297Z,10.28
2019-05-05T00:07:45.360Z,10.28
2019-05-05T00:10:30.762Z,11.00
2019-05-05T00:13:17.701Z,14.90
2019-05-05T00:16:11.858Z,13.45
2019-05-05T00:18:50.337Z,13.85
2019-05-05T00:21:28.102Z,10.30
2019-05-05T00:24:05.329Z,14.07
2019-05-05T00:26:46.054Z,13.85
2019-05-05T00:29:25.218Z,12.13
2019-05-05T00:32:02.483Z,12.40
2019-05-05T00:34:40.458Z,11.08
2019-05-05T00:37:17.839Z,13.43
2019-05-05T00:39:55.581Z,17.37
2019-05-05T00:42:35.198Z,13.85
2019-05-05T00:45:14.651Z,11.18
2019-05-05T00:48:05.271Z,9.93
2019-05-05T00:50:44.980Z,13.03
2019-05-05T00:53:22.408Z,12.13
2019-05-05T00:55:59.926Z,12.93
2019-05-05T00:58:39.164Z,13.28
2019-05-05T01:01:45.314Z,14.00
2019-05-05T01:04:29.099Z,14.35
2019-05-05T01:07:07.273Z,16.35
2019-05-05T01:09:45.535Z,14.63
2019-05-05T01:12:24.455Z,15.90
2019-05-05T01:15:01.858Z,10.90
2019-05-05T01:17:39.665Z,13.55
2019-05-05T01:20:17.483Z,13.68
2019-05-05T01:22:55.499Z,16.97
2019-05-05T01:25:34.695Z,14.03
2019-05-05T01:28:14.235Z,17.42
2019-05-05T01:30:54.994Z,17.30
2019-05-05T01:33:51.855Z,21.42
2019-05-05T01:36:29.992Z,19.05
2019-05-05T01:39:25.120Z,18.23
2019-05-05T01:42:04.873Z,22.13
2019-05-05T01:44:44.822Z,23.47
2019-05-05T01:47:25.272Z,18.73
2019-05-05T01:50:16.736Z,16.82
2019-05-05T01:52:40.827Z,18.23
2019-05-05T01:55:20.330Z,19.82
2019-05-05T01:57:58.179Z,17.48
2019-05-05T02:00:35.706Z,14.20
2019-05-05T02:03:14.755Z,17.98
2019-05-05T02:05:54.992Z,19.23
2019-05-05T02:08:34.941Z,16.85
2019-05-05T02:11:15.604Z,17.55
2019-05-05T02:13:54.548Z,19.50
2019-05-05T02:16:34.534Z,15.58
2019-05-05T02:19:11.169Z,18.30
2019-05-05T02:21:48.656Z,26.48
2019-05-05T02:24:25.807Z,20.00
2019-05-05T02:27:05.868Z,18.30
2019-05-05T02:30:16.235Z,17.87
2019-05-05T02:33:02.421Z,17.23
2019-05-05T02:35:39.739Z,23.77
2019-05-05T02:38:17.493Z,21.87
2019-05-05T02:40:55.436Z,18.07
2019-05-05T02:43:34.558Z,21.90
2019-05-05T02:46:20.431Z,25.23
2019-05-05T02:48:59.493Z,43.98
2019-05-05T02:51:37.078Z,37.38
2019-05-05T02:54:14.862Z,19.02
2019-05-05T02:56:54.217Z,22.17
2019-05-05T02:59:38.681Z,24.92
2019-05-05T03:02:19.302Z,24.32
2019-05-05T03:04:57.189Z,18.95
2019-05-05T03:07:34.504Z,23.32
2019-05-05T03:10:14.082Z,24.15
2019-05-05T03:12:51.599Z,20.43
2019-05-05T03:15:49.757Z,22.35
2019-05-05T03:18:27.993Z,23.22
2019-05-05T03:21:07.437Z,23.57
2019-05-05T03:23:46.336Z,27.65
2019-05-05T03:26:24.347Z,20.45
2019-05-05T03:29:04.795Z,17.90
2019-05-05T03:31:45.890Z,25.37
2019-05-05T03:34:24.090Z,18.02
2019-05-05T03:37:01.473Z,15.95
2019-05-05T03:39:40.352Z,22.77
2019-05-05T03:42:33.804Z,19.05
2019-05-05T03:45:24.739Z,22.95
2019-05-05T03:48:04.682Z,22.48
2019-05-05T03:50:44.509Z,23.67
2019-05-05T03:53:24.433Z,19.77
2019-05-05T03:56:03.805Z,18.57
2019-05-05T03:58:40.251Z,20.08
2019-05-05T04:01:44.105Z,19.23
2019-05-05T04:04:27.713Z,18.77
2019-05-05T04:07:05.013Z,21.12
2019-05-05T04:09:43.793Z,17.00
2019-05-05T04:12:21.125Z,20.75
2019-05-05T04:14:59.657Z,19.75
2019-05-05T04:17:49.779Z,21.33
2019-05-05T04:20:30.136Z,23.62
2019-05-05T04:23:07.283Z,22.30
2019-05-05T04:25:45.831Z,26.50
2019-05-05T04:28:24.094Z,20.97
2019-05-05T04:31:01.567Z,23.52
2019-05-05T04:33:39.184Z,21.42
2019-05-05T04:36:17.487Z,21.00
2019-05-05T04:38:55.048Z,24.07
2019-05-05T04:41:33.799Z,19.07
2019-05-05T04:44:11.488Z,23.30
2019-05-05T04:46:50.863Z,22.20
2019-05-05T04:49:44.530Z,22.52
2019-05-05T04:52:25.246Z,22.70
2019-05-05T04:55:03.857Z,19.20
2019-05-05T04:57:43.705Z,19.65
2019-05-05T05:00:24.021Z,17.32
2019-05-05T05:03:20.433Z,20.35
2019-05-05T05:06:10.478Z,20.72
2019-05-05T05:08:48.343Z,19.92
2019-05-05T05:11:25.604Z,23.00
2019-05-05T05:14:03.873Z,19.82
2019-05-05T05:16:41.010Z,24.70
2019-05-05T05:19:18.795Z,20.75
2019-05-05T05:22:01.644Z,18.25
2019-05-05T05:24:35.600Z,26.48
2019-05-05T05:27:13.883Z,28.98
2019-05-05T05:29:54.423Z,26.68
2019-05-05T05:32:33.970Z,19.57
2019-05-05T05:35:11.407Z,22.40
2019-05-05T05:37:48.584Z,20.68
2019-05-05T05:40:44.741Z,19.15
2019-05-05T05:43:36.787Z,19.80
2019-05-05T05:46:32.970Z,18.62
2019-05-05T05:49:18.888Z,20.80
2019-05-05T05:52:12.372Z,17.73
2019-05-05T05:54:40.601Z,19.67
2019-05-05T05:57:18.404Z,21.33
2019-05-05T05:59:55.804Z,19.52
2019-05-05T06:02:34.086Z,17.57
2019-05-05T06:05:11.601Z,16.20
2019-05-05T06:07:49.043Z,16.85
2019-05-05T06:10:27.621Z,19.85
2019-05-05T06:13:05.703Z,13.70
2019-05-05T06:15:44.403Z,30.60
2019-05-05T06:18:24.325Z,16.23
2019-05-05T06:21:01.992Z,18.87
2019-05-05T06:23:40.118Z,17.20
2019-05-05T06:26:18.538Z,14.28
2019-05-05T06:28:55.879Z,14.65
2019-05-05T06:31:34.156Z,20.95
2019-05-05T06:34:13.962Z,19.75
2019-05-05T06:36:51.393Z,19.73
2019-05-05T06:39:28.651Z,20.88
2019-05-05T06:42:23.679Z,29.92
2019-05-05T06:45:05.987Z,18.30
2019-05-05T06:47:45.529Z,19.95
2019-05-05T06:50:24.288Z,17.50
2019-05-05T06:53:04.110Z,19.25
2019-05-05T06:55:44.288Z,21.60
2019-05-05T06:58:24.160Z,19.27
2019-05-05T07:01:03.634Z,20.88
2019-05-05T07:03:40.943Z,24.30
2019-05-05T07:06:18.558Z,21.23
2019-05-05T07:08:55.818Z,16.02
2019-05-05T07:11:34.328Z,21.15
2019-05-05T07:14:14.129Z,18.50
2019-05-05T07:16:54.339Z,23.35
2019-05-05T07:19:31.082Z,19.15
2019-05-05T07:22:08.555Z,21.25
2019-05-05T07:24:45.700Z,18.65
2019-05-05T07:27:24.523Z,20.15
2019-05-05T07:30:04.868Z,25.15
2019-05-05T07:32:44.192Z,21.02
2019-05-05T07:35:56.882Z,16.67
2019-05-05T07:38:28.457Z,14.15
2019-05-05T07:41:05.868Z,17.85
2019-05-05T07:43:43.812Z,19.42
2019-05-05T07:46:21.347Z,20.45
2019-05-05T07:48:59.923Z,22.90
2019-05-05T07:51:38.039Z,17.70
2019-05-05T07:54:16.010Z,14.58
2019-05-05T07:56:53.947Z,17.57
2019-05-05T07:59:33.885Z,18.12
2019-05-05T08:02:11.850Z,16.95
2019-05-05T08:04:49.409Z,17.77
2019-05-05T08:07:26.934Z,18.90
2019-05-05T08:10:05.195Z,18.05
2019-05-05T08:12:43.638Z,26.82
2019-05-05T08:15:23.767Z,13.70
2019-05-05T08:18:24.193Z,22.35
2019-05-05T08:21:04.524Z,18.02
2019-05-05T08:23:47.640Z,14.87
2019-05-05T08:26:46.510Z,15.28
2019-05-05T08:32:39.207Z,15.75
2019-05-05T08:35:17.151Z,18.37
2019-05-05T08:37:54.658Z,22.40
2019-05-05T08:40:34.548Z,22.05
2019-05-05T08:43:13.852Z,19.67
2019-05-05T08:45:51.816Z,18.37
2019-05-05T08:48:29.291Z,20.50
2019-05-05T08:51:07.688Z,19.65
2019-05-05T08:53:48.179Z,13.95
2019-05-05T08:56:24.579Z,12.63
2019-05-05T08:59:03.664Z,11.75
2019-05-05T09:01:41.436Z,17.15
2019-05-05T09:04:19.838Z,17.92
2019-05-05T09:06:58.286Z,14.83
2019-05-05T09:09:35.453Z,18.98
2019-05-05T09:12:14.050Z,19.12
2019-05-05T09:14:53.819Z,25.55
2019-05-05T09:17:30.907Z,28.30
2019-05-05T09:20:08.525Z,14.93
2019-05-05T09:22:46.937Z,23.85
2019-05-05T09:25:50.012Z,16.65
2019-05-05T09:28:45.754Z,15.15
2019-05-05T09:31:24.081Z,24.32
2019-05-05T09:34:04.167Z,18.23
2019-05-05T09:36:43.991Z,18.48
2019-05-05T09:39:23.864Z,19.25
2019-05-05T09:42:00.886Z,21.10
2019-05-05T09:44:38.820Z,19.75
2019-05-05T09:47:16.047Z,17.30
2019-05-05T09:49:54.976Z,20.10
2019-05-05T09:52:33.795Z,17.73
2019-05-05T09:55:13.834Z,15.15
2019-05-05T09:57:50.965Z,14.73
2019-05-05T10:00:28.688Z,12.07
2019-05-05T10:03:06.114Z,18.52
2019-05-05T10:05:43.935Z,16.87
2019-05-05T10:08:23.534Z,15.13
2019-05-05T10:11:00.407Z,18.48
2019-05-05T10:13:37.776Z,14.00
2019-05-05T10:16:16.765Z,16.32
2019-05-05T10:18:54.359Z,16.30
2019-05-05T10:21:33.783Z,13.98
2019-05-05T10:24:27.640Z,13.18
2019-05-05T10:26:58.710Z,15.15
2019-05-05T10:29:36.440Z,13.93
2019-05-05T10:32:14.841Z,13.40
2019-05-05T10:35:04.574Z,19.10
2019-05-05T10:37:43.969Z,11.57
2019-05-05T10:40:25.376Z,10.55
2019-05-05T10:43:04.384Z,15.93
2019-05-05T10:45:44.049Z,11.35
2019-05-05T10:48:23.581Z,12.63
2019-05-05T10:51:01.070Z,11.50
2019-05-05T10:53:38.523Z,13.10
2019-05-05T10:56:16.776Z,12.28
2019-05-05T10:58:54.628Z,11.03
2019-05-05T11:01:34.219Z,11.25
2019-05-05T11:04:13.518Z,11.95
2019-05-05T11:06:50.866Z,13.80
2019-05-05T11:09:29.100Z,12.47
2019-05-05T11:12:07.082Z,18.23
2019-05-05T11:14:45.999Z,13.68
2019-05-05T11:17:24.818Z,15.18
2019-05-05T11:20:03.974Z,15.40
2019-05-05T11:22:43.818Z,15.70
2019-05-05T11:25:21.089Z,17.87
2019-05-05T11:27:59.641Z,16.07
2019-05-05T11:30:43.858Z,14.50
2019-05-05T11:33:36.143Z,14.75
2019-05-05T11:38:58.088Z,17.80
2019-05-05T11:41:36.383Z,20.17
2019-05-05T11:44:15.270Z,13.20
2019-05-05T11:46:54.698Z,16.62
2019-05-05T11:49:33.690Z,14.93
2019-05-05T11:52:12.146Z,14.55
2019-05-05T11:54:49.247Z,12.47
2019-05-05T11:57:26.553Z,19.25
2019-05-05T12:00:03.946Z,15.48
2019-05-05T12:02:44.648Z,12.68
2019-05-05T12:05:21.892Z,14.15
2019-05-05T12:07:59.484Z,13.35
2019-05-05T12:11:10.374Z,13.35
2019-05-05T12:13:48.483Z,14.40
2019-05-05T12:16:34.681Z,17.40
2019-05-05T12:19:13.890Z,15.70
2019-05-05T12:21:51.421Z,11.83
2019-05-05T12:24:35.151Z,18.87
2019-05-05T12:27:22.082Z,15.32
2019-05-05T12:30:06.832Z,15.43
2019-05-05T12:32:47.755Z,12.65
2019-05-05T12:35:27.796Z,10.45
2019-05-05T12:38:05.382Z,13.50
2019-05-05T12:40:45.818Z,12.50
2019-05-05T12:43:24.648Z,17.27
2019-05-05T12:46:24.220Z,14.03
2019-05-05T12:49:06.334Z,11.63
2019-05-05T12:51:44.460Z,13.48
2019-05-05T12:54:24.406Z,15.88
2019-05-05T12:57:04.385Z,12.40
2019-05-05T12:59:44.448Z,10.28
2019-05-05T13:02:23.515Z,13.60
2019-05-05T13:05:01.075Z,13.13
2019-05-05T13:07:39.338Z,11.18
2019-05-05T13:10:18.081Z,13.22
2019-05-05T13:12:56.065Z,12.82
2019-05-05T13:15:34.629Z,11.22
2019-05-05T13:18:14.030Z,10.43
2019-05-05T13:21:09.786Z,12.10
2019-05-05T13:23:56.514Z,12.10
2019-05-05T13:26:39.307Z,9.30
2019-05-05T13:29:17.148Z,7.97
2019-05-05T13:31:54.596Z,14.33
2019-05-05T13:34:31.563Z,10.10
2019-05-05T13:37:09.053Z,11.35
2019-05-05T13:39:47.203Z,8.45
2019-05-05T13:42:24.821Z,11.15
2019-05-05T13:45:14.408Z,11.57
2019-05-05T13:47:51.705Z,8.50
2019-05-05T13:50:44.528Z,15.05
2019-05-05T13:53:23.718Z,14.43
2019-05-05T13:56:11.044Z,12.15
2019-05-05T13:58:40.625Z,11.63
2019-05-05T14:01:19.103Z,12.55
2019-05-05T14:03:57.803Z,13.20
2019-05-05T14:06:35.760Z,9.08
2019-05-05T14:09:14.405Z,14.18
2019-05-05T14:11:53.533Z,14.15
2019-05-05T14:14:30.861Z,10.65
2019-05-05T14:17:08.990Z,11.03
2019-05-05T14:20:00.407Z,8.93
2019-05-05T14:22:26.350Z,9.85
2019-05-05T14:25:10.598Z,12.60
2019-05-05T14:27:48.177Z,12.00
2019-05-05T14:30:44.346Z,12.13
2019-05-05T14:33:25.383Z,8.55
2019-05-05T14:36:16.610Z,10.03
2019-05-05T14:38:57.622Z,11.93
2019-05-05T14:41:36.030Z,15.58
2019-05-05T14:44:13.831Z,13.65
2019-05-05T14:46:51.188Z,11.70
2019-05-05T14:49:28.659Z,15.98
2019-05-05T14:52:06.066Z,12.63
2019-05-05T14:54:44.356Z,7.78
2019-05-05T14:57:24.942Z,8.68
2019-05-05T15:00:04.545Z,11.57
2019-05-05T15:02:43.857Z,11.88
2019-05-05T15:05:45.629Z,12.80
2019-05-05T15:08:54.475Z,9.95
2019-05-05T15:11:53.836Z,9.93
2019-05-05T15:14:31.430Z,13.43
2019-05-05T15:17:09.588Z,12.28
2019-05-05T15:19:46.677Z,9.95
2019-05-05T15:22:24.502Z,12.93
2019-05-05T15:25:04.064Z,11.68
2019-05-05T15:27:45.120Z,12.53
2019-05-05T15:30:26.899Z,8.80
2019-05-05T15:33:04.624Z,13.08
2019-05-05T15:35:44.502Z,12.28
2019-05-05T15:38:21.258Z,10.60
2019-05-05T15:40:58.981Z,13.13
2019-05-05T15:43:36.493Z,10.23
2019-05-05T15:46:15.251Z,14.07
2019-05-05T15:48:54.436Z,12.70
2019-05-05T15:51:31.663Z,10.65
2019-05-05T15:54:09.101Z,13.53
2019-05-05T15:56:46.165Z,13.93
2019-05-05T15:59:24.837Z,14.55
2019-05-05T16:02:04.184Z,14.85
2019-05-05T16:04:41.209Z,15.50
2019-05-05T16:07:19.034Z,13.18
2019-05-05T16:09:57.133Z,13.15
2019-05-05T16:12:39.349Z,14.33
2019-05-05T16:15:27.696Z,13.72
2019-05-05T16:18:29.276Z,15.28
2019-05-05T16:21:26.330Z,16.90
2019-05-05T16:24:06.295Z,15.85
2019-05-05T16:26:43.941Z,16.12
2019-05-05T16:29:21.422Z,17.23
2019-05-05T16:32:00.883Z,19.12
2019-05-05T16:34:38.202Z,15.68
2019-05-05T16:37:15.532Z,15.80
2019-05-05T16:39:54.336Z,20.97
2019-05-05T16:42:34.456Z,22.93
2019-05-05T16:45:13.658Z,22.15
2019-05-05T16:47:51.186Z,20.05
2019-05-05T16:50:28.732Z,19.57
2019-05-05T16:53:06.977Z,17.37
2019-05-05T16:55:53.740Z,16.52
2019-05-05T16:58:33.281Z,18.98
2019-05-05T17:01:14.491Z,21.05
2019-05-05T17:03:54.341Z,18.32
2019-05-05T17:06:31.732Z,19.62
2019-05-05T17:09:09.432Z,23.52
2019-05-05T17:12:05.751Z,20.37
2019-05-05T17:15:04.474Z,17.95
2019-05-05T17:17:57.228Z,26.40
2019-05-05T17:20:39.047Z,22.27
2019-05-05T17:23:18.039Z,22.95
2019-05-05T17:25:56.515Z,18.02
2019-05-05T17:28:33.646Z,23.20
2019-05-05T17:31:12.564Z,25.17
2019-05-05T17:33:50.127Z,22.73
2019-05-05T17:36:29.640Z,19.92
2019-05-05T17:39:08.847Z,21.82
2019-05-05T17:42:14.249Z,23.20
2019-05-05T17:45:19.617Z,20.12
2019-05-05T17:48:01.312Z,25.43
2019-05-05T17:51:15.759Z,22.27
2019-05-05T17:54:10.533Z,25.17
2019-05-05T17:56:47.825Z,21.73
2019-05-05T17:59:26.242Z,21.27
2019-05-05T18:02:04.715Z,21.27
2019-05-05T18:04:45.816Z,17.95
2019-05-05T18:07:31.312Z,20.08
2019-05-05T18:10:24.076Z,21.35
2019-05-05T18:13:17.335Z,21.55
2019-05-05T18:15:57.093Z,25.95
2019-05-05T18:18:34.316Z,24.07
2019-05-05T18:21:14.249Z,18.50
2019-05-05T18:23:51.427Z,28.52
2019-05-05T18:26:28.934Z,20.80
2019-05-05T18:29:06.196Z,24.43
2019-05-05T18:31:43.818Z,25.80
2019-05-05T18:34:21.200Z,23.70
2019-05-05T18:36:58.823Z,22.45
2019-05-05T18:39:36.835Z,19.20
2019-05-05T18:42:24.402Z,24.60
2019-05-05T18:45:07.290Z,18.60
2019-05-05T18:47:45.405Z,17.40
2019-05-05T18:50:24.417Z,17.82
2019-05-05T18:53:04.677Z,21.33
2019-05-05T18:55:44.303Z,20.85
2019-05-05T18:58:29.687Z,19.02
2019-05-05T19:01:13.594Z,17.17
2019-05-05T19:04:09.515Z,22.22
2019-05-05T19:07:07.002Z,21.17
2019-05-05T19:09:53.958Z,23.75
2019-05-05T19:12:26.234Z,21.05
2019-05-05T19:15:04.438Z,29.65
2019-05-05T19:17:43.555Z,26.80
2019-05-05T19:20:29.119Z,26.90
2019-05-05T19:23:06.608Z,23.67
2019-05-05T19:25:44.855Z,26.75
2019-05-05T19:28:23.544Z,26.62
2019-05-05T19:31:01.144Z,26.50
2019-05-05T19:33:39.255Z,22.77
2019-05-05T19:36:17.740Z,23.50
2019-05-05T19:38:55.299Z,24.47
2019-05-05T19:41:34.824Z,19.87
2019-05-05T19:44:14.552Z,19.40
2019-05-05T19:47:00.478Z,23.55
2019-05-05T19:49:39.224Z,25.43
2019-05-05T19:52:16.773Z,26.60
2019-05-05T19:54:55.349Z,27.17
2019-05-05T19:57:33.656Z,21.45
2019-05-05T20:00:12.064Z,25.68
2019-05-05T20:03:01.349Z,28.32
2019-05-05T20:05:29.500Z,22.48
2019-05-05T20:08:07.482Z,23.32
2019-05-05T20:10:45.086Z,21.37
2019-05-05T20:13:23.355Z,24.50
2019-05-05T20:16:24.283Z,25.70
2019-05-05T20:19:04.211Z,28.17
2019-05-05T20:21:41.353Z,26.37
2019-05-05T20:24:18.849Z,23.02
2019-05-05T20:26:55.911Z,26.95
2019-05-05T20:29:37.061Z,30.43
2019-05-05T20:32:13.895Z,30.45
2019-05-05T20:35:04.375Z,24.77
2019-05-05T20:37:49.363Z,28.65
2019-05-05T20:40:31.092Z,26.62
2019-05-05T20:43:08.458Z,24.43
2019-05-05T20:45:48.057Z,23.92
2019-05-05T20:48:25.624Z,23.87
2019-05-05T20:51:03.534Z,27.10
2019-05-05T20:53:41.038Z,22.58
2019-05-05T20:56:19.128Z,25.45
2019-05-05T20:58:56.119Z,26.68
2019-05-05T21:01:34.324Z,26.12
2019-05-05T21:04:14.066Z,23.35
2019-05-05T21:06:51.931Z,23.02
2019-05-05T21:09:29.676Z,26.65
2019-05-05T21:12:08.190Z,27.20
2019-05-05T21:14:45.391Z,25.62
2019-05-05T21:17:24.583Z,26.75
2019-05-05T21:20:04.185Z,24.20
2019-05-05T21:22:51.491Z,25.32
2019-05-05T21:25:38.234Z,29.67
2019-05-05T21:28:15.879Z,30.97
2019-05-05T21:30:54.097Z,23.05
2019-05-05T21:33:31.894Z,26.50
2019-05-05T21:36:09.235Z,29.70
2019-05-05T21:38:47.336Z,25.75
2019-05-05T21:41:24.665Z,22.95
2019-05-05T21:44:03.768Z,29.92
2019-05-05T21:46:40.794Z,32.05
2019-05-05T21:49:20.509Z,22.90
2019-05-05T21:52:16.313Z,27.45
2019-05-05T21:55:11.270Z,24.27
2019-05-05T21:58:13.522Z,26.57
2019-05-05T22:01:08.567Z,23.80
2019-05-05T22:03:46.103Z,30.08
2019-05-05T22:06:24.249Z,25.75
2019-05-05T22:09:01.411Z,33.18
2019-05-05T22:11:40.101Z,30.17
2019-05-05T22:14:17.494Z,27.32
2019-05-05T22:16:56.462Z,27.00
2019-05-05T22:19:37.261Z,41.18
2019-05-05T22:22:16.150Z,28.30
2019-05-05T22:24:54.061Z,24.87
2019-05-05T22:27:34.549Z,24.57
2019-05-05T22:30:14.032Z,25.27
2019-05-05T22:32:51.312Z,19.73
2019-05-05T22:35:28.714Z,26.50
2019-05-05T22:38:06.611Z,24.87
2019-05-05T22:40:44.182Z,17.77
2019-05-05T22:43:23.911Z,22.77
2019-05-05T22:46:03.515Z,29.77
2019-05-05T22:48:43.874Z,24.47
2019-05-05T22:51:22.040Z,20.50
2019-05-05T22:53:59.752Z,27.25
2019-05-05T22:56:37.360Z,27.60
2019-05-05T22:59:16.298Z,21.55
2019-05-05T23:01:54.151Z,25.12
2019-05-05T23:04:40.376Z,26.12
2019-05-05T23:07:45.476Z,26.50
2019-05-05T23:10:23.579Z,22.67
2019-05-05T23:13:00.992Z,24.87
2019-05-05T23:15:40.009Z,24.05
2019-05-05T23:18:25.443Z,26.40
2019-05-05T23:21:15.906Z,23.57
2019-05-05T23:24:14.321Z,26.37
2019-05-05T23:26:54.598Z,24.77
2019-05-05T23:29:33.988Z,24.32
2019-05-05T23:32:11.379Z,25.75
2019-05-05T23:34:48.910Z,25.15
2019-05-05T23:37:26.576Z,27.02
2019-05-05T23:40:04.071Z,30.88
2019-05-05T23:42:42.067Z,30.02
2019-05-05T23:45:19.537Z,31.75
2019-05-05T23:47:57.006Z,31.07
2019-05-05T23:50:34.695Z,28.85
2019-05-05T23:53:13.844Z,30.20
2019-05-05T23:55:54.408Z,30.68
2019-05-05T23:58:30.906Z,33.95
